.
Local / Fort Wayne - NE Ind.

U N D E R   C O N S T R U C T I O N

Local Weather
Fort Wayne – NE Indiana

Northern Indiana (IWX) Radar

Latest IWX NEXRAD
Base Reflectivity



Latest IWX NEXRAD
Base Velocity

Indiana-Ohio Visible Satellite

For infrared and water vapor imagery, see Great Lakes - Midwest.

Current Conditions

Recent report from the Fort Wayne International Airport

Feb 19, 2018 - 04:54 PM EST / 2018.02.19 2154 UTC


The skies are overcast and there is light rain. The temperature is 61.0 F (16.1 C) and the dew point is 57.0 F (13.9 C), giving a relative humidity of 86%. The barometric pressure is 29.96 in. Hg (1014 hPa). The wind is from the WSW (240 degrees) at 20 MPH (17 KT), and the visibility is 10 mile(s).

KFWA 192154Z 24017KT 10SM -RA SCT018 OVC025 16/14 A2996 RMK AO2 PK WND 20027/2104 RAB23 SLP146 P0000 T01610139

Local Weather — Contents

Local Weather — Links

CoCoRaHS
IN-AL-39
A2 Web Hosting
Creative Commons License
GoDaddy
Look for:

loaded 2018-02-19 17:18:51 • last modified 2017-02-11 13:27:36
Privacy PolicyDisclaimer
• wx.awcolley.com is powered by PmWiki v.2002016 •
• all content (unless otherwise noted) © 2018 A W Colley